Time;durP1;ratioP1;P1;durP2;ratioP2;P2;SDS_P1;SDS_P2;PMS_P1;PMS_P2;Temp;Humidity;BMP_temperature;BMP_pressure;BME280_temperature;BME280_humidity;BME280_pressure;Samples;Min_cycle;Max_cycle;Signal;HPM_P1;HPM_P2
2022/08/09 00:00:19;;;;;;;;;;;17.70;56.90;;;;;;5109258;28;19920;-78
2022/08/09 00:02:45;;;;;;;;;;;17.70;56.80;;;;;;5107592;28;20467;-78
2022/08/09 00:05:11;;;;;;;;;;;17.60;57.10;;;;;;5094171;28;20364;-78
2022/08/09 00:07:37;;;;;;;;;;;17.70;57.70;;;;;;5093907;28;19912;-78
2022/08/09 00:10:03;;;;;;;;;;;17.60;57.40;;;;;;5105754;28;20365;-78
2022/08/09 00:12:29;;;;;;;;;;;17.60;57.30;;;;;;5090960;28;19919;-79
2022/08/09 00:14:56;;;;;;;;;;;17.60;58.20;;;;;;5093448;28;19998;-78
2022/08/09 00:17:23;;;;;;;;;;;17.60;57.90;;;;;;5110818;28;19911;-78
2022/08/09 00:19:49;;;;;;;;;;;17.60;58.10;;;;;;5086035;28;20269;-78
2022/08/09 00:22:15;;;;;;;;;;;17.60;58.00;;;;;;5112400;28;19953;-77
2022/08/09 00:24:41;;;;;;;;;;;17.60;58.40;;;;;;5110265;28;20030;-79
2022/08/09 00:27:07;;;;;;;;;;;17.50;58.60;;;;;;5112127;28;19930;-77
2022/08/09 00:29:33;;;;;;;;;;;17.30;58.60;;;;;;5089988;28;19919;-78
2022/08/09 00:31:59;;;;;;;;;;;17.30;58.70;;;;;;5092246;28;20357;-78
2022/08/09 00:34:25;;;;;;;;;;;17.30;58.50;;;;;;5105927;28;20010;-77
2022/08/09 00:36:51;;;;;;;;;;;17.40;58.10;;;;;;5108796;28;20268;-77
2022/08/09 00:39:17;;;;;;;;;;;17.50;58.10;;;;;;5112160;28;19923;-77
2022/08/09 00:41:44;;;;;;;;;;;17.50;58.20;;;;;;5093655;28;19911;-78
2022/08/09 00:44:10;;;;;;;;;;;17.40;58.60;;;;;;5110096;28;19912;-78
2022/08/09 00:46:36;;;;;;;;;;;17.20;59.10;;;;;;5109643;28;19927;-78
2022/08/09 00:49:02;;;;;;;;;;;17.10;59.60;;;;;;5108369;28;20261;-79
2022/08/09 00:51:28;;;;;;;;;;;17.10;59.90;;;;;;5108095;28;19912;-79
2022/08/09 00:53:54;;;;;;;;;;;17.10;60.30;;;;;;5090210;28;20360;-78
2022/08/09 00:56:20;;;;;;;;;;;17.10;60.70;;;;;;5116111;28;20022;-78
2022/08/09 00:58:49;;;;;;;;;;;17.10;61.30;;;;;;5115530;28;20280;-78
2022/08/09 01:01:18;;;;;;;;;;;17.00;61.20;;;;;;5097274;28;19919;-78
2022/08/09 01:04:03;;;;;;;;;;;17.00;61.40;;;;;;5093853;28;19912;-78
2022/08/09 01:06:34;;;;;;;;;;;17.00;62.20;;;;;;5111992;28;19916;-78
2022/08/09 01:09:09;;;;;;;;;;;16.80;62.10;;;;;;5110373;28;19916;-78
2022/08/09 01:11:49;;;;;;;;;;;16.80;63.40;;;;;;5114041;28;19912;-78
2022/08/09 01:14:22;;;;;;;;;;;16.70;63.10;;;;;;5110493;28;20285;-78
2022/08/09 01:16:49;;;;;;;;;;;16.70;63.20;;;;;;5073317;28;19928;-78
2022/08/09 01:19:34;;;;;;;;;;;16.70;63.20;;;;;;5111955;28;19919;-77
2022/08/09 01:22:18;;;;;;;;;;;16.80;62.80;;;;;;5116125;28;19912;-77
2022/08/09 01:24:55;;;;;;;;;;;16.90;62.50;;;;;;5090950;28;19919;-78
2022/08/09 01:27:25;;;;;;;;;;;17.00;62.40;;;;;;5115259;28;19927;-78
2022/08/09 01:29:55;;;;;;;;;;;17.10;62.20;;;;;;5112475;28;19912;-78
2022/08/09 01:32:22;;;;;;;;;;;17.10;62.60;;;;;;5110524;28;19919;-78
2022/08/09 01:34:51;;;;;;;;;;;17.10;62.50;;;;;;5113776;28;20348;-78
2022/08/09 01:37:19;;;;;;;;;;;17.10;62.90;;;;;;5115469;28;19920;-78
2022/08/09 01:39:46;;;;;;;;;;;17.10;63.10;;;;;;5097469;28;19916;-77
2022/08/09 01:42:12;;;;;;;;;;;17.10;63.50;;;;;;5109053;28;19912;-77
2022/08/09 01:44:40;;;;;;;;;;;17.00;63.90;;;;;;5111961;28;20288;-78
2022/08/09 01:47:06;;;;;;;;;;;16.80;64.10;;;;;;5111625;28;19912;-78
2022/08/09 01:49:33;;;;;;;;;;;16.70;64.60;;;;;;5112832;28;20349;-78
2022/08/09 01:52:18;;;;;;;;;;;16.50;65.00;;;;;;5110445;28;20283;-78
2022/08/09 01:54:45;;;;;;;;;;;16.50;65.10;;;;;;5114670;28;20280;-78
2022/08/09 01:57:16;;;;;;;;;;;16.50;65.00;;;;;;5114618;28;19931;-79
2022/08/09 01:59:44;;;;;;;;;;;16.50;65.30;;;;;;5114799;28;19912;-79
2022/08/09 02:02:12;;;;;;;;;;;16.40;66.40;;;;;;5096174;28;19953;-79
2022/08/09 02:04:38;;;;;;;;;;;16.40;69.50;;;;;;5092741;28;19927;-79
2022/08/09 02:07:14;;;;;;;;;;;16.30;70.10;;;;;;5094049;28;19912;-79
2022/08/09 02:09:43;;;;;;;;;;;16.30;70.70;;;;;;5113266;28;19916;-79
2022/08/09 02:12:10;;;;;;;;;;;16.30;71.30;;;;;;5104083;28;19912;-80
2022/08/09 02:14:38;;;;;;;;;;;16.20;70.20;;;;;;5114187;28;19912;-79
2022/08/09 02:17:04;;;;;;;;;;;16.20;70.80;;;;;;5108957;28;19920;-79
2022/08/09 02:19:30;;;;;;;;;;;16.30;71.80;;;;;;5111456;28;19919;-79
2022/08/09 02:21:57;;;;;;;;;;;16.30;70.00;;;;;;5109405;28;19916;-78
2022/08/09 02:24:25;;;;;;;;;;;16.10;71.80;;;;;;5110359;28;19920;-78
2022/08/09 02:26:53;;;;;;;;;;;16.10;71.10;;;;;;5112106;28;19920;-78
2022/08/09 02:29:21;;;;;;;;;;;16.00;73.60;;;;;;5109776;28;19912;-78
2022/08/09 02:31:48;;;;;;;;;;;15.90;72.50;;;;;;5112995;28;19912;-78
2022/08/09 02:34:16;;;;;;;;;;;15.90;72.70;;;;;;5095283;28;20221;-78
2022/08/09 02:36:43;;;;;;;;;;;15.90;73.10;;;;;;5108129;28;19919;-78
2022/08/09 02:39:11;;;;;;;;;;;15.80;73.30;;;;;;5107853;28;19927;-78
2022/08/09 02:41:42;;;;;;;;;;;16.10;72.60;;;;;;5108887;28;19919;-78
2022/08/09 02:44:10;;;;;;;;;;;16.40;71.50;;;;;;5110002;28;19911;-78
2022/08/09 02:46:37;;;;;;;;;;;16.40;71.20;;;;;;5095055;28;19922;-78
2022/08/09 02:49:05;;;;;;;;;;;16.40;71.50;;;;;;5108625;28;19997;-78
2022/08/09 02:51:33;;;;;;;;;;;16.50;71.40;;;;;;5107471;28;19912;-78
2022/08/09 02:54:01;;;;;;;;;;;16.40;71.40;;;;;;5094157;28;19919;-78
2022/08/09 02:56:29;;;;;;;;;;;16.40;71.50;;;;;;5109657;28;19942;-78
2022/08/09 02:58:56;;;;;;;;;;;16.40;72.00;;;;;;5110949;28;19912;-78
2022/08/09 03:01:22;;;;;;;;;;;16.30;72.70;;;;;;5096123;28;19912;-78
2022/08/09 03:03:48;;;;;;;;;;;16.30;73.10;;;;;;5109408;28;19919;-78
2022/08/09 03:06:15;;;;;;;;;;;16.20;73.20;;;;;;5093722;28;19912;-77
2022/08/09 03:08:43;;;;;;;;;;;16.20;73.60;;;;;;5104228;28;19932;-78
2022/08/09 03:11:09;;;;;;;;;;;16.20;74.10;;;;;;5095627;28;19923;-78
2022/08/09 03:13:36;;;;;;;;;;;16.10;74.30;;;;;;5112379;28;19911;-78
2022/08/09 03:16:02;;;;;;;;;;;16.10;74.90;;;;;;5112471;28;20300;-78
2022/08/09 03:18:29;;;;;;;;;;;16.00;75.10;;;;;;5108239;28;19912;-78
2022/08/09 03:20:55;;;;;;;;;;;16.00;75.40;;;;;;5107055;28;19919;-78
2022/08/09 03:23:21;;;;;;;;;;;16.00;75.70;;;;;;5107767;28;19908;-78
2022/08/09 03:25:48;;;;;;;;;;;16.10;75.40;;;;;;5111042;28;19920;-78
2022/08/09 03:28:14;;;;;;;;;;;16.20;74.90;;;;;;5101721;28;20285;-77
2022/08/09 03:30:41;;;;;;;;;;;16.20;74.90;;;;;;5102048;28;19912;-78
2022/08/09 03:33:08;;;;;;;;;;;16.30;74.70;;;;;;5114982;28;19919;-77
2022/08/09 03:35:34;;;;;;;;;;;16.30;75.00;;;;;;5112090;28;19912;-77
2022/08/09 03:38:01;;;;;;;;;;;16.30;74.60;;;;;;5116871;28;19986;-78
2022/08/09 03:40:27;;;;;;;;;;;16.20;74.70;;;;;;5122948;28;19922;-78
2022/08/09 03:42:53;;;;;;;;;;;16.20;75.00;;;;;;5131552;28;19959;-77
2022/08/09 03:45:19;;;;;;;;;;;16.20;75.00;;;;;;5101955;28;20344;-78
2022/08/09 03:47:44;;;;;;;;;;;16.20;75.30;;;;;;5089847;28;19961;-78
2022/08/09 03:50:11;;;;;;;;;;;16.10;75.50;;;;;;5108238;28;19963;-76
2022/08/09 03:52:39;;;;;;;;;;;16.10;75.70;;;;;;5105770;28;19923;-77
2022/08/09 03:55:06;;;;;;;;;;;16.10;75.80;;;;;;5105151;28;19911;-77
2022/08/09 03:57:32;;;;;;;;;;;16.10;76.20;;;;;;5093596;28;19920;-77
2022/08/09 03:59:58;;;;;;;;;;;16.00;76.70;;;;;;5107787;28;20370;-77
2022/08/09 04:02:26;;;;;;;;;;;16.00;77.30;;;;;;5106445;28;20489;-79
2022/08/09 04:04:52;;;;;;;;;;;16.00;77.00;;;;;;5075437;28;19912;-78
2022/08/09 04:07:18;;;;;;;;;;;16.00;77.20;;;;;;5111784;28;19911;-78
2022/08/09 04:09:44;;;;;;;;;;;16.00;77.10;;;;;;5107844;28;19916;-78
2022/08/09 04:12:10;;;;;;;;;;;16.00;77.20;;;;;;5093463;28;19908;-77
2022/08/09 04:14:37;;;;;;;;;;;16.00;77.50;;;;;;5108724;28;20269;-79
2022/08/09 04:17:03;;;;;;;;;;;15.90;77.70;;;;;;5099562;28;19920;-78
2022/08/09 04:19:30;;;;;;;;;;;15.90;78.10;;;;;;5112455;28;19911;-78
2022/08/09 04:21:56;;;;;;;;;;;15.80;78.40;;;;;;5102033;28;21299;-79
2022/08/09 04:24:24;;;;;;;;;;;15.80;79.00;;;;;;5108668;28;19942;-78
2022/08/09 04:26:50;;;;;;;;;;;15.80;79.30;;;;;;5108457;28;20045;-78
2022/08/09 04:29:16;;;;;;;;;;;15.70;79.50;;;;;;5110505;28;19916;-78
2022/08/09 04:31:42;;;;;;;;;;;15.70;79.70;;;;;;5093449;28;19918;-78
2022/08/09 04:34:08;;;;;;;;;;;15.70;80.20;;;;;;5106542;28;20253;-78
2022/08/09 04:36:34;;;;;;;;;;;15.70;80.20;;;;;;5106672;28;19927;-78
2022/08/09 04:39:02;;;;;;;;;;;15.70;80.40;;;;;;5093737;28;19923;-78
2022/08/09 04:41:29;;;;;;;;;;;15.80;79.90;;;;;;5107047;28;19911;-78
2022/08/09 04:43:55;;;;;;;;;;;15.90;79.60;;;;;;5101727;28;20006;-78
2022/08/09 04:46:21;;;;;;;;;;;15.80;79.40;;;;;;5092985;28;19912;-77
2022/08/09 04:48:47;;;;;;;;;;;15.80;79.60;;;;;;5093512;28;20383;-78
2022/08/09 04:51:13;;;;;;;;;;;15.90;79.70;;;;;;5106356;28;19912;-76
2022/08/09 04:53:39;;;;;;;;;;;15.90;79.10;;;;;;5106617;28;19913;-78
2022/08/09 04:56:05;;;;;;;;;;;16.60;77.30;;;;;;5109859;28;19920;-77
2022/08/09 04:58:31;;;;;;;;;;;17.50;72.70;;;;;;5112117;28;19919;-80
2022/08/09 05:00:58;;;;;;;;;;;18.30;68.80;;;;;;5109726;28;19912;-78
2022/08/09 05:03:24;;;;;;;;;;;19.00;66.00;;;;;;5106688;28;20387;-78
2022/08/09 05:05:50;;;;;;;;;;;19.40;63.50;;;;;;5111658;28;20387;-78
2022/08/09 05:08:16;;;;;;;;;;;19.50;62.70;;;;;;5107031;28;19920;-79
2022/08/09 05:10:43;;;;;;;;;;;19.80;61.80;;;;;;5109837;28;20380;-78
2022/08/09 05:13:09;;;;;;;;;;;20.20;60.10;;;;;;5104086;28;19916;-79
2022/08/09 05:15:35;;;;;;;;;;;20.50;59.20;;;;;;5105282;28;19916;-79
2022/08/09 05:18:01;;;;;;;;;;;20.40;58.60;;;;;;5075793;28;19920;-79
2022/08/09 05:20:27;;;;;;;;;;;20.40;58.90;;;;;;5107010;28;19912;-80
2022/08/09 05:22:53;;;;;;;;;;;21.00;57.80;;;;;;5109418;28;19912;-79
2022/08/09 05:25:20;;;;;;;;;;;21.20;56.90;;;;;;5108451;28;19912;-79
2022/08/09 05:27:46;;;;;;;;;;;21.50;56.10;;;;;;5107042;28;19912;-79
2022/08/09 05:30:12;;;;;;;;;;;21.50;55.70;;;;;;5106708;28;19912;-80
2022/08/09 05:32:38;;;;;;;;;;;21.30;56.20;;;;;;5092093;28;19931;-80
2022/08/09 05:35:05;;;;;;;;;;;21.80;55.50;;;;;;5105806;28;19912;-79
2022/08/09 05:37:31;;;;;;;;;;;22.30;54.20;;;;;;5110041;28;19919;-80
2022/08/09 05:39:57;;;;;;;;;;;23.30;53.80;;;;;;5107278;28;19927;-78
2022/08/09 05:42:24;;;;;;;;;;;24.00;53.40;;;;;;5104280;28;20333;-78
2022/08/09 05:44:50;;;;;;;;;;;24.50;50.50;;;;;;5106725;28;19912;-79
2022/08/09 05:47:16;;;;;;;;;;;24.40;51.60;;;;;;5106972;28;19913;-78
2022/08/09 05:49:42;;;;;;;;;;;24.20;50.10;;;;;;5108030;28;19918;-79
2022/08/09 05:52:08;;;;;;;;;;;24.20;50.70;;;;;;5110991;28;19964;-79
2022/08/09 05:54:34;;;;;;;;;;;24.90;49.80;;;;;;5106079;28;19919;-79
2022/08/09 05:57:00;;;;;;;;;;;25.30;48.30;;;;;;5091032;28;20380;-79
2022/08/09 05:59:26;;;;;;;;;;;24.30;49.30;;;;;;5096545;28;20284;-78
2022/08/09 06:01:52;;;;;;;;;;;24.00;50.10;;;;;;5110247;28;19919;-78
2022/08/09 06:04:18;;;;;;;;;;;24.50;49.40;;;;;;5096291;28;20276;-79
2022/08/09 06:06:44;;;;;;;;;;;24.40;49.50;;;;;;5111385;28;19961;-78
2022/08/09 06:09:10;;;;;;;;;;;24.30;49.40;;;;;;5110394;28;20337;-77
2022/08/09 06:11:36;;;;;;;;;;;24.10;49.50;;;;;;5111482;28;19915;-78
2022/08/09 06:14:02;;;;;;;;;;;23.60;50.20;;;;;;5110805;28;20285;-77
2022/08/09 06:16:28;;;;;;;;;;;23.70;50.00;;;;;;5094201;28;19927;-77
2022/08/09 06:18:54;;;;;;;;;;;23.70;50.20;;;;;;5092734;28;19961;-77
2022/08/09 06:21:20;;;;;;;;;;;24.10;49.50;;;;;;5109331;28;19947;-78
2022/08/09 06:23:47;;;;;;;;;;;23.90;49.70;;;;;;5106230;28;19920;-77
2022/08/09 06:26:16;;;;;;;;;;;24.20;49.10;;;;;;5091729;28;20283;-74
2022/08/09 06:28:42;;;;;;;;;;;24.60;49.40;;;;;;5110751;28;19923;-77
2022/08/09 06:31:08;;;;;;;;;;;24.40;48.60;;;;;;5108562;28;19927;-74
2022/08/09 06:33:34;;;;;;;;;;;25.10;48.20;;;;;;5108927;28;19931;-79
2022/08/09 06:36:00;;;;;;;;;;;26.10;46.70;;;;;;5113607;28;20365;-74
2022/08/09 06:38:26;;;;;;;;;;;25.90;47.20;;;;;;5109906;28;19920;-75
2022/08/09 06:40:52;;;;;;;;;;;26.70;46.00;;;;;;5114141;28;19918;-75
2022/08/09 06:43:18;;;;;;;;;;;27.70;44.80;;;;;;5108909;28;19919;-75
2022/08/09 06:45:45;;;;;;;;;;;27.00;44.90;;;;;;5107772;28;19912;-75
2022/08/09 06:48:11;;;;;;;;;;;26.80;45.00;;;;;;5104155;28;19934;-75
2022/08/09 06:50:37;;;;;;;;;;;26.30;45.30;;;;;;5108444;28;19916;-74
2022/08/09 06:53:03;;;;;;;;;;;25.70;45.70;;;;;;5110319;28;20478;-74
2022/08/09 06:55:31;;;;;;;;;;;26.20;45.50;;;;;;5095215;28;19919;-75
2022/08/09 06:57:58;;;;;;;;;;;27.40;44.60;;;;;;5113209;28;19942;-75
2022/08/09 07:00:25;;;;;;;;;;;28.00;43.40;;;;;;5105904;28;20404;-75
2022/08/09 07:02:51;;;;;;;;;;;27.90;43.40;;;;;;5110931;28;20367;-75
2022/08/09 07:05:17;;;;;;;;;;;27.50;43.90;;;;;;5093990;28;19916;-75
2022/08/09 07:07:43;;;;;;;;;;;26.40;44.90;;;;;;5108482;28;19912;-75
2022/08/09 07:10:09;;;;;;;;;;;26.30;44.50;;;;;;5113136;28;19920;-75
2022/08/09 07:12:36;;;;;;;;;;;27.60;44.00;;;;;;5111144;28;20304;-76
2022/08/09 07:15:03;;;;;;;;;;;27.80;43.30;;;;;;5109833;28;19919;-76
2022/08/09 07:17:29;;;;;;;;;;;27.30;44.10;;;;;;5107826;28;20030;-75
2022/08/09 07:19:55;;;;;;;;;;;27.70;43.90;;;;;;5109162;28;20196;-75
2022/08/09 07:22:22;;;;;;;;;;;28.70;42.50;;;;;;5094253;28;19912;-75
2022/08/09 07:24:48;;;;;;;;;;;28.30;42.70;;;;;;5110762;28;19912;-75
2022/08/09 07:27:14;;;;;;;;;;;27.60;44.20;;;;;;5111724;28;19927;-75
2022/08/09 07:29:40;;;;;;;;;;;28.00;44.10;;;;;;5076509;28;20281;-76
2022/08/09 07:32:06;;;;;;;;;;;28.00;43.50;;;;;;5109183;28;20281;-76
2022/08/09 07:34:32;;;;;;;;;;;28.40;43.70;;;;;;5110402;28;19912;-76
2022/08/09 07:36:58;;;;;;;;;;;28.10;43.40;;;;;;5113137;28;19927;-76
2022/08/09 07:39:24;;;;;;;;;;;28.60;43.40;;;;;;5109938;28;19916;-76
2022/08/09 07:41:50;;;;;;;;;;;28.50;44.00;;;;;;5104323;28;20475;-75
2022/08/09 07:44:16;;;;;;;;;;;28.80;43.30;;;;;;5109347;28;19930;-75
2022/08/09 07:46:43;;;;;;;;;;;28.50;43.20;;;;;;5103412;28;19917;-76
2022/08/09 07:49:09;;;;;;;;;;;28.50;43.60;;;;;;5107151;28;19915;-76
2022/08/09 07:51:36;;;;;;;;;;;29.30;43.70;;;;;;5111839;28;20246;-75
2022/08/09 07:54:02;;;;;;;;;;;30.10;42.50;;;;;;5112230;28;20233;-75
2022/08/09 07:56:28;;;;;;;;;;;28.80;42.90;;;;;;5112808;28;19934;-75
2022/08/09 07:58:54;;;;;;;;;;;28.70;43.80;;;;;;5094345;28;19911;-76
2022/08/09 08:01:20;;;;;;;;;;;30.00;42.80;;;;;;5107925;28;19919;-76
2022/08/09 08:03:46;;;;;;;;;;;30.00;42.60;;;;;;5105439;28;19916;-77
2022/08/09 08:06:12;;;;;;;;;;;29.70;42.50;;;;;;5109621;28;20431;-76
2022/08/09 08:08:38;;;;;;;;;;;30.00;42.00;;;;;;5091227;28;19915;-76
2022/08/09 08:11:04;;;;;;;;;;;29.90;42.10;;;;;;5108923;28;19912;-75
2022/08/09 08:13:30;;;;;;;;;;;29.90;42.20;;;;;;5091687;28;19912;-74
2022/08/09 08:15:56;;;;;;;;;;;30.70;41.20;;;;;;5125191;28;20364;-76
2022/08/09 08:18:22;;;;;;;;;;;29.40;41.90;;;;;;5127364;28;19927;-74
2022/08/09 08:20:48;;;;;;;;;;;28.70;43.00;;;;;;5114775;28;19912;-75
2022/08/09 08:23:16;;;;;;;;;;;29.10;42.00;;;;;;5093230;28;20265;-77
2022/08/09 08:25:42;;;;;;;;;;;29.90;41.90;;;;;;5117496;28;19920;-75
2022/08/09 08:28:08;;;;;;;;;;;29.30;41.70;;;;;;5096970;28;20380;-74
2022/08/09 08:30:34;;;;;;;;;;;30.30;42.10;;;;;;5110121;28;19916;-74
2022/08/09 08:33:00;;;;;;;;;;;29.90;41.20;;;;;;5107564;28;19912;-75
2022/08/09 08:35:26;;;;;;;;;;;29.40;42.20;;;;;;5105049;28;20011;-77
2022/08/09 08:37:52;;;;;;;;;;;30.50;42.00;;;;;;5106047;28;19920;-75
2022/08/09 08:40:18;;;;;;;;;;;31.10;40.60;;;;;;5109320;28;19923;-74
2022/08/09 08:42:44;;;;;;;;;;;30.10;41.10;;;;;;5110127;28;19912;-75
2022/08/09 08:45:10;;;;;;;;;;;30.60;40.50;;;;;;5111822;28;20416;-74
2022/08/09 08:47:39;;;;;;;;;;;31.90;40.30;;;;;;5090921;28;19916;-79
2022/08/09 08:50:05;;;;;;;;;;;33.60;39.60;;;;;;5112057;28;19912;-75
2022/08/09 08:52:32;;;;;;;;;;;34.20;39.50;;;;;;5105653;28;19912;-75
2022/08/09 08:54:59;;;;;;;;;;;33.50;39.20;;;;;;5106204;28;19912;-75
2022/08/09 08:57:26;;;;;;;;;;;32.80;39.40;;;;;;5111756;28;19931;-75
2022/08/09 08:59:53;;;;;;;;;;;32.60;39.10;;;;;;5111771;28;19911;-76
2022/08/09 09:02:26;;;;;;;;;;;32.00;38.10;;;;;;5109415;28;19919;-75
2022/08/09 09:04:53;;;;;;;;;;;31.80;39.40;;;;;;5110441;28;19912;-75
2022/08/09 09:07:19;;;;;;;;;;;32.00;39.10;;;;;;5092811;28;20254;-75
2022/08/09 09:09:46;;;;;;;;;;;32.30;39.40;;;;;;5111239;28;19916;-74
2022/08/09 09:12:14;;;;;;;;;;;31.70;39.60;;;;;;5110999;28;19915;-77
2022/08/09 09:14:41;;;;;;;;;;;31.00;39.80;;;;;;5096323;28;19911;-76
2022/08/09 09:17:07;;;;;;;;;;;30.80;40.50;;;;;;5112895;28;19927;-75
2022/08/09 09:19:33;;;;;;;;;;;31.10;39.90;;;;;;5110093;28;19915;-75
2022/08/09 09:22:03;;;;;;;;;;;31.90;39.50;;;;;;5114181;28;19911;-75
2022/08/09 09:24:31;;;;;;;;;;;31.20;39.80;;;;;;5116194;28;20349;-75
2022/08/09 09:26:58;;;;;;;;;;;30.40;40.20;;;;;;5114824;28;20368;-75
2022/08/09 09:29:30;;;;;;;;;;;30.50;39.60;;;;;;5111213;28;19912;-75
2022/08/09 09:31:56;;;;;;;;;;;32.10;39.10;;;;;;5111741;28;19915;-75
2022/08/09 09:34:22;;;;;;;;;;;32.90;39.10;;;;;;5116092;28;19912;-77
2022/08/09 09:36:48;;;;;;;;;;;33.30;38.50;;;;;;5112733;28;19926;-74
2022/08/09 09:39:17;;;;;;;;;;;32.50;38.50;;;;;;5111102;28;19915;-75
2022/08/09 09:41:43;;;;;;;;;;;32.90;38.80;;;;;;5109666;28;19919;-76
2022/08/09 09:44:09;;;;;;;;;;;33.40;37.30;;;;;;5108961;28;19912;-76
2022/08/09 09:46:36;;;;;;;;;;;32.10;37.40;;;;;;5110837;28;20254;-76
2022/08/09 09:49:07;;;;;;;;;;;32.80;37.30;;;;;;5112820;28;19919;-76
2022/08/09 09:51:34;;;;;;;;;;;31.40;37.90;;;;;;5110283;28;19919;-76
2022/08/09 09:54:03;;;;;;;;;;;31.90;39.10;;;;;;5102004;28;19912;-75
2022/08/09 09:56:30;;;;;;;;;;;31.60;38.70;;;;;;5112592;28;19923;-75
2022/08/09 09:58:56;;;;;;;;;;;30.70;40.60;;;;;;5114973;28;20139;-76
2022/08/09 10:01:22;;;;;;;;;;;31.00;39.70;;;;;;5112285;28;20391;-76
2022/08/09 10:03:49;;;;;;;;;;;32.30;38.60;;;;;;5109647;28;19912;-75
2022/08/09 10:06:16;;;;;;;;;;;32.50;38.10;;;;;;5114599;28;19919;-75
2022/08/09 10:08:43;;;;;;;;;;;32.60;37.80;;;;;;5109335;28;20391;-75
2022/08/09 10:11:17;;;;;;;;;;;32.30;38.20;;;;;;5111493;28;19923;-75
2022/08/09 10:13:43;;;;;;;;;;;31.40;38.90;;;;;;5102273;28;20344;-76
2022/08/09 10:16:09;;;;;;;;;;;31.10;39.60;;;;;;5109756;28;20300;-75
2022/08/09 10:18:35;;;;;;;;;;;30.80;37.60;;;;;;5114127;28;19920;-75
2022/08/09 10:21:05;;;;;;;;;;;30.90;38.50;;;;;;5108383;28;19912;-76
2022/08/09 10:23:31;;;;;;;;;;;30.80;37.20;;;;;;5107902;28;19982;-75
2022/08/09 10:25:57;;;;;;;;;;;29.70;37.20;;;;;;5089429;28;20435;-75
2022/08/09 10:28:23;;;;;;;;;;;29.70;37.50;;;;;;5105848;28;19911;-76
2022/08/09 10:30:49;;;;;;;;;;;29.40;37.80;;;;;;5079193;28;19931;-75
2022/08/09 10:33:15;;;;;;;;;;;29.80;38.80;;;;;;5097337;28;19923;-76
2022/08/09 10:35:41;;;;;;;;;;;30.00;37.50;;;;;;5113438;28;19919;-75
2022/08/09 10:38:08;;;;;;;;;;;30.30;37.90;;;;;;5114690;28;20256;-75
2022/08/09 10:40:34;;;;;;;;;;;29.80;37.00;;;;;;5110563;28;19916;-76
2022/08/09 10:43:00;;;;;;;;;;;29.50;37.00;;;;;;5094998;28;20357;-76
2022/08/09 10:45:28;;;;;;;;;;;29.70;37.50;;;;;;5109051;28;20055;-77
2022/08/09 10:48:04;;;;;;;;;;;29.70;37.00;;;;;;5111110;28;19920;-76
2022/08/09 10:53:27;;;;;;;;;;;30.20;37.00;;;;;;5104332;28;20371;-79
2022/08/09 10:56:13;;;;;;;;;;;29.50;37.30;;;;;;5093168;28;19990;-76
2022/08/09 10:58:39;;;;;;;;;;;29.20;37.60;;;;;;5112942;28;20377;-76
2022/08/09 11:01:24;;;;;;;;;;;29.40;37.70;;;;;;5107867;28;19977;-75
2022/08/09 11:04:09;;;;;;;;;;;29.30;37.50;;;;;;5111330;28;20383;-75
2022/08/09 11:06:37;;;;;;;;;;;28.90;37.50;;;;;;5107883;28;20369;-75
2022/08/09 11:09:03;;;;;;;;;;;29.20;37.90;;;;;;5113718;28;19916;-75
2022/08/09 11:11:48;;;;;;;;;;;29.50;38.70;;;;;;5113238;28;19935;-74
2022/08/09 11:14:26;;;;;;;;;;;29.40;37.90;;;;;;5110447;28;19912;-74
2022/08/09 11:16:52;;;;;;;;;;;29.60;38.10;;;;;;5113385;28;19919;-74
2022/08/09 11:19:38;;;;;;;;;;;29.70;37.70;;;;;;5113516;28;20348;-75
2022/08/09 11:22:06;;;;;;;;;;;29.60;37.40;;;;;;5095241;28;19912;-75
2022/08/09 11:24:50;;;;;;;;;;;29.50;37.90;;;;;;5099780;28;19919;-75
2022/08/09 11:27:31;;;;;;;;;;;29.50;37.50;;;;;;5104029;28;19930;-75
2022/08/09 11:29:58;;;;;;;;;;;29.00;38.00;;;;;;5108014;28;19912;-74
2022/08/09 11:32:43;;;;;;;;;;;28.90;38.00;;;;;;5105253;28;19912;-75
2022/08/09 11:35:17;;;;;;;;;;;29.50;38.20;;;;;;5108060;28;19911;-77
2022/08/09 11:37:44;;;;;;;;;;;29.90;37.30;;;;;;5112126;28;19923;-77
2022/08/09 11:40:11;;;;;;;;;;;29.80;37.80;;;;;;5107168;28;19934;-78
2022/08/09 11:42:42;;;;;;;;;;;29.50;37.40;;;;;;5107568;28;19912;-80
2022/08/09 11:45:19;;;;;;;;;;;29.70;37.60;;;;;;5093065;28;19923;-77
2022/08/09 11:47:50;;;;;;;;;;;29.50;37.60;;;;;;5105671;28;19918;-74
2022/08/09 11:50:16;;;;;;;;;;;29.90;37.80;;;;;;5112205;28;19912;-74
2022/08/09 11:53:14;;;;;;;;;;;30.10;37.60;;;;;;5107050;28;19912;-75
2022/08/09 11:55:41;;;;;;;;;;;29.90;37.50;;;;;;5059909;28;19934;-76
2022/08/09 11:58:10;;;;;;;;;;;30.30;37.70;;;;;;5094275;28;20288;-75
2022/08/09 12:00:45;;;;;;;;;;;30.30;37.50;;;;;;5111138;28;19911;-75
2022/08/09 12:03:14;;;;;;;;;;;29.80;37.60;;;;;;5110727;28;19911;-75
2022/08/09 12:05:40;;;;;;;;;;;30.00;37.60;;;;;;5109989;28;20311;-76
2022/08/09 12:08:08;;;;;;;;;;;30.20;37.40;;;;;;5110037;28;19919;-75
2022/08/09 12:10:34;;;;;;;;;;;30.40;37.30;;;;;;5106965;28;19923;-75
2022/08/09 12:13:01;;;;;;;;;;;30.30;37.20;;;;;;5110635;28;20387;-75
2022/08/09 12:15:27;;;;;;;;;;;30.10;37.70;;;;;;5104502;28;19999;-75
2022/08/09 12:17:53;;;;;;;;;;;30.10;38.00;;;;;;5104840;28;20400;-76
2022/08/09 12:20:21;;;;;;;;;;;30.10;37.10;;;;;;5109726;28;19912;-76
2022/08/09 12:22:48;;;;;;;;;;;30.20;37.50;;;;;;5106932;28;19916;-75
2022/08/09 12:25:16;;;;;;;;;;;30.30;37.00;;;;;;5108123;28;20380;-76
2022/08/09 12:27:42;;;;;;;;;;;29.70;36.80;;;;;;5106188;28;19912;-76
2022/08/09 12:30:08;;;;;;;;;;;29.50;37.70;;;;;;5112033;28;19916;-75
2022/08/09 12:32:35;;;;;;;;;;;30.00;37.30;;;;;;5105918;28;19919;-77
2022/08/09 12:35:03;;;;;;;;;;;29.90;36.90;;;;;;5110982;28;19918;-76
2022/08/09 12:37:30;;;;;;;;;;;30.20;38.30;;;;;;5108849;28;19920;-76
2022/08/09 12:40:04;;;;;;;;;;;30.30;36.90;;;;;;5109118;28;19920;-76
2022/08/09 12:42:30;;;;;;;;;;;30.40;37.50;;;;;;5108924;28;19911;-77
2022/08/09 12:44:56;;;;;;;;;;;30.40;36.80;;;;;;5109883;28;20276;-76
2022/08/09 12:47:23;;;;;;;;;;;30.10;37.00;;;;;;5113450;28;19919;-78
2022/08/09 12:52:37;;;;;;;;;;;30.50;36.70;;;;;;5126742;28;19903;-75
2022/08/09 12:55:04;;;;;;;;;;;30.50;36.80;;;;;;5120077;28;19911;-75
2022/08/09 12:57:40;;;;;;;;;;;30.20;36.70;;;;;;5108937;28;19927;-75
2022/08/09 13:00:39;;;;;;;;;;;30.40;36.80;;;;;;5112725;28;19916;-74
2022/08/09 13:03:05;;;;;;;;;;;30.60;36.50;;;;;;5049369;28;20325;-74
2022/08/09 13:05:47;;;;;;;;;;;30.40;36.30;;;;;;5107383;28;20288;-75
2022/08/09 13:08:17;;;;;;;;;;;30.40;36.00;;;;;;5103411;28;19916;-75
2022/08/09 13:10:44;;;;;;;;;;;30.80;36.80;;;;;;5111557;28;19912;-76
2022/08/09 13:13:10;;;;;;;;;;;30.40;36.20;;;;;;5112345;28;19919;-75
2022/08/09 13:15:49;;;;;;;;;;;30.30;36.40;;;;;;5103507;28;19912;-74
2022/08/09 13:18:15;;;;;;;;;;;30.10;36.30;;;;;;5106730;28;20010;-75
2022/08/09 13:20:41;;;;;;;;;;;30.10;36.30;;;;;;5111286;28;20003;-76
2022/08/09 13:23:07;;;;;;;;;;;30.20;36.40;;;;;;5111425;28;19920;-75
2022/08/09 13:25:40;;;;;;;;;;;30.40;36.10;;;;;;5109157;28;19927;-75
2022/08/09 13:28:11;;;;;;;;;;;30.10;36.00;;;;;;5111551;28;19934;-74
2022/08/09 13:30:37;;;;;;;;;;;30.10;36.30;;;;;;5111640;28;19915;-75
2022/08/09 13:33:03;;;;;;;;;;;30.10;36.50;;;;;;5107522;28;19919;-75
2022/08/09 13:35:29;;;;;;;;;;;30.10;36.70;;;;;;5109657;28;19912;-74
2022/08/09 13:37:55;;;;;;;;;;;30.40;36.60;;;;;;5107443;28;20376;-75
2022/08/09 13:40:21;;;;;;;;;;;30.00;36.60;;;;;;5106376;28;19954;-74
2022/08/09 13:42:47;;;;;;;;;;;30.60;37.00;;;;;;5110847;28;19915;-75
2022/08/09 13:45:14;;;;;;;;;;;31.00;36.40;;;;;;5108150;28;20369;-75
2022/08/09 13:47:40;;;;;;;;;;;30.50;35.90;;;;;;5109474;28;20257;-79
2022/08/09 13:50:08;;;;;;;;;;;30.10;35.80;;;;;;5111871;28;19919;-75
2022/08/09 13:52:34;;;;;;;;;;;29.80;36.40;;;;;;5110546;28;20360;-75
2022/08/09 13:55:01;;;;;;;;;;;30.10;35.80;;;;;;5090033;28;19912;-76
2022/08/09 13:57:28;;;;;;;;;;;30.40;35.80;;;;;;5111155;28;19923;-75
2022/08/09 13:59:54;;;;;;;;;;;30.20;35.70;;;;;;5114391;28;19912;-75
2022/08/09 14:02:20;;;;;;;;;;;30.30;36.10;;;;;;5107521;28;19916;-75
2022/08/09 14:04:46;;;;;;;;;;;30.30;35.60;;;;;;5111556;28;19912;-75
2022/08/09 14:07:12;;;;;;;;;;;30.50;36.00;;;;;;5115387;28;20217;-75
2022/08/09 14:09:38;;;;;;;;;;;30.60;35.10;;;;;;5112613;28;19923;-75
2022/08/09 14:12:04;;;;;;;;;;;30.60;35.60;;;;;;5112233;28;19912;-75
2022/08/09 14:14:30;;;;;;;;;;;30.70;35.60;;;;;;5094918;28;19911;-76
2022/08/09 14:16:56;;;;;;;;;;;30.80;35.20;;;;;;5095278;28;19939;-75
2022/08/09 14:19:23;;;;;;;;;;;30.70;35.40;;;;;;5113786;28;20415;-75
2022/08/09 14:21:49;;;;;;;;;;;30.30;35.40;;;;;;5107141;28;20364;-76
2022/08/09 14:24:16;;;;;;;;;;;30.30;35.90;;;;;;5112951;28;19912;-75